ジュネーヴ の空港の天気 - METARとTAF

ジュネーヴ・コアントラン国際空港 ( LSGG / GVA ) - スイス ジュネーヴ
飛行場実況気象(Metar)
観測時間03/28 23:20 CEST (03/28 21:20 UTC)
風向・風速東 2m/s
視程10km以上
天気現象
少しの雲 雲底高度 2590m
気温13℃
湿度54%
気圧1026hPa
METARLSGG 282120Z AUTO 08003KT 330V120 9999 FEW085 13/04 Q1026 NOSIG
過去の天気等 Google飛行場航空写真 Wunderground天気予報

過去48時間のMETAR

飛行場予報(TAF)
発表時間: 3/28 22:25 CEST (3/28 20:25 UTC)
予報対象時間: 28日23時 CEST ~ 30日5時 CEST
風向・風速不定 2m/s
視程10km以上
少しの雲 雲底高度 2,130m
全天の4割程度の雲 雲底高度 9,140m
29日0時 CEST ~ 29日2時 CEST に徐々に
視程10km以上
なし
29日8時 CEST ~ 29日11時 CEST に徐々に
風向・風速北東 4m/s
29日20時 CEST ~ 29日22時 CEST に徐々に
風向・風速不定 2m/s
TAF LSGG 282025Z 2821/3003 VRB03KT 9999 FEW070 SCT300 TX20/2915Z TN05/2905Z
BECMG 2822/2900 CAVOK
BECMG 2906/2909 05007KT
BECMG 2918/2920 VRB03KT